Time;durP1;ratioP1;P1;durP2;ratioP2;P2;SDS_P1;SDS_P2;PMS_P1;PMS_P2;Temp;Humidity;BMP_temperature;BMP_pressure;BME280_temperature;BME280_humidity;BME280_pressure;Samples;Min_cycle;Max_cycle;Signal;HPM_P1;HPM_P2
2022/04/07 00:00:03;;;;;;;17.67;8.00;;;9.30;99.90;;;;;;5117275;27;20051;-76
2022/04/07 00:02:41;;;;;;;20.80;9.02;;;9.20;99.90;;;;;;5138807;27;20050;-76
2022/04/07 00:05:08;;;;;;;20.65;8.43;;;9.20;99.90;;;;;;5105765;27;20494;-76
2022/04/07 00:07:55;;;;;;;19.95;9.45;;;9.10;99.90;;;;;;5117645;27;20089;-75
2022/04/07 00:10:22;;;;;;;21.52;9.68;;;9.20;99.90;;;;;;5116250;27;20126;-74
2022/04/07 00:13:12;;;;;;;27.02;10.75;;;9.10;99.90;;;;;;5113840;28;20047;-74
2022/04/07 00:15:45;;;;;;;18.98;10.27;;;9.20;99.90;;;;;;5079187;28;20095;-76
2022/04/07 00:18:12;;;;;;;22.63;10.52;;;9.10;99.90;;;;;;5132860;28;20127;-77
2022/04/07 00:20:45;;;;;;;21.95;10.43;;;9.20;99.90;;;;;;5113316;28;20058;-74
2022/04/07 00:23:23;;;;;;;23.13;11.18;;;9.30;99.90;;;;;;5119469;27;20051;-74
2022/04/07 00:26:02;;;;;;;22.27;10.45;;;9.40;99.90;;;;;;5105839;27;20039;-74
2022/04/07 00:28:28;;;;;;;;;;;9.30;99.90;;;;;;5121999;27;20516;-74
2022/04/07 00:30:57;;;;;;;24.80;11.57;;;9.30;99.90;;;;;;5103453;27;19919;-74
2022/04/07 00:33:28;;;;;;;23.20;10.60;;;9.30;99.90;;;;;;5081343;28;20076;-75
2022/04/07 00:35:56;;;;;;;22.50;11.98;;;9.30;99.90;;;;;;5078662;28;20694;-74
2022/04/07 00:38:28;;;;;;;18.50;10.60;;;9.30;99.90;;;;;;5040865;28;20056;-76
2022/04/07 00:40:54;;;;;;;23.35;11.40;;;9.40;99.90;;;;;;5037139;28;20061;-76
2022/04/07 00:43:48;;;;;;;22.48;11.13;;;9.30;99.90;;;;;;5072418;28;20087;-75
2022/04/07 00:46:16;;;;;;;25.42;11.77;;;9.30;99.90;;;;;;5054359;28;20191;-75
2022/04/07 00:51:28;;;;;;;21.57;9.83;;;9.30;99.90;;;;;;5039933;28;19928;-76
2022/04/07 00:54:02;;;;;;;25.08;10.15;;;9.30;99.90;;;;;;4998890;28;20057;-75
2022/04/07 00:56:37;;;;;;;23.95;10.43;;;9.40;99.90;;;;;;5016827;28;20064;-74
2022/04/07 00:59:07;;;;;;;22.45;10.35;;;9.30;99.90;;;;;;4999572;28;20505;-76
2022/04/07 01:01:34;;;;;;;17.15;8.10;;;9.30;99.90;;;;;;5032624;28;20553;-75
2022/04/07 01:04:02;;;;;;;20.90;10.48;;;9.40;99.90;;;;;;5041111;28;20155;-74
2022/04/07 01:06:27;;;;;;;27.45;11.20;;;9.30;99.90;;;;;;5055981;28;20135;-74
2022/04/07 01:08:56;;;;;;;23.10;11.77;;;9.30;99.90;;;;;;5071296;27;20138;-76
2022/04/07 01:11:25;;;;;;;25.27;9.23;;;9.30;99.90;;;;;;5106038;27;20035;-76
2022/04/07 01:13:52;;;;;;;30.30;10.98;;;9.20;99.90;;;;;;5086621;27;20138;-74
2022/04/07 01:16:26;;;;;;;21.48;8.20;;;9.20;99.90;;;;;;5140796;27;20107;-79
2022/04/07 01:18:55;;;;;;;24.13;9.10;;;9.20;99.90;;;;;;5108756;27;20055;-81
2022/04/07 01:21:21;;;;;;;26.52;10.10;;;9.10;99.90;;;;;;5142755;27;20053;-78
2022/04/07 01:24:04;;;;;;;18.27;8.73;;;9.20;99.90;;;;;;5142386;27;20375;-80
2022/04/07 01:26:37;;;;;;;23.10;8.00;;;9.20;99.90;;;;;;5162445;27;20090;-80
2022/04/07 01:29:05;;;;;;;21.17;7.97;;;9.20;99.90;;;;;;5163301;27;20051;-81
2022/04/07 01:31:31;;;;;;;24.05;8.20;;;9.20;99.90;;;;;;5143029;27;20134;-82
2022/04/07 01:33:59;;;;;;;19.90;7.13;;;9.10;99.90;;;;;;5107190;27;20053;-80
2022/04/07 01:36:26;;;;;;;;;;;9.10;99.90;;;;;;5141079;27;20356;-79
2022/04/07 01:38:53;;;;;;;19.10;5.85;;;9.10;99.90;;;;;;5140512;27;19919;-79
2022/04/07 01:41:21;;;;;;;13.90;5.45;;;9.10;99.90;;;;;;5158521;27;20042;-79
2022/04/07 01:43:49;;;;;;;11.45;5.47;;;9.10;99.90;;;;;;5121996;27;20093;-80
2022/04/07 01:46:15;;;;;;;17.10;5.03;;;9.10;99.90;;;;;;5139532;27;20129;-80
2022/04/07 01:48:43;;;;;;;17.77;5.57;;;9.10;99.90;;;;;;5140105;27;20057;-79
2022/04/07 01:51:10;;;;;;;17.88;5.68;;;9.10;99.90;;;;;;5140112;27;20498;-79
2022/04/07 01:53:40;;;;;;;15.23;5.18;;;9.10;99.90;;;;;;5162012;27;20058;-81
2022/04/07 01:56:06;;;;;;;17.20;5.45;;;9.10;99.90;;;;;;5122811;27;20050;-80
2022/04/07 01:58:34;;;;;;;20.83;5.22;;;9.10;99.90;;;;;;5139862;27;20050;-78
2022/04/07 02:01:00;;;;;;;12.88;4.78;;;9.10;99.90;;;;;;5123473;27;20066;-83
2022/04/07 02:03:25;;;;;;;19.10;5.20;;;9.10;99.90;;;;;;5142042;27;20043;-79
2022/04/07 02:05:52;;;;;;;17.50;5.00;;;9.10;99.90;;;;;;5159674;27;20095;-79
2022/04/07 02:08:18;;;;;;;20.15;4.18;;;9.00;99.90;;;;;;5124038;27;20047;-79
2022/04/07 02:10:46;;;;;;;19.75;5.13;;;9.00;99.90;;;;;;5141561;27;20042;-78
2022/04/07 02:13:15;;;;;;;19.75;5.40;;;9.00;99.90;;;;;;5127407;27;20111;-76
2022/04/07 02:15:42;;;;;;;18.45;4.70;;;9.00;99.90;;;;;;5141305;27;20467;-79
2022/04/07 02:18:08;;;;;;;21.38;4.85;;;9.10;99.90;;;;;;5121836;27;20061;-77
2022/04/07 02:20:33;;;;;;;19.83;5.25;;;9.10;99.90;;;;;;5121583;27;20043;-78
2022/04/07 02:22:59;;;;;;;20.33;5.70;;;9.20;99.90;;;;;;5158307;27;20058;-80
2022/04/07 02:25:27;;;;;;;18.42;5.43;;;9.10;99.90;;;;;;5135797;27;20055;-81
2022/04/07 02:27:54;;;;;;;24.73;5.18;;;9.10;99.90;;;;;;5118775;27;20051;-78
2022/04/07 02:30:20;;;;;;;26.30;6.05;;;9.00;99.90;;;;;;5117409;27;20118;-79
2022/04/07 02:32:48;;;;;;;22.60;5.63;;;8.90;99.90;;;;;;5101241;27;20074;-80
2022/04/07 02:35:13;;;;;;;24.42;5.68;;;8.90;99.90;;;;;;5134443;27;20123;-80
2022/04/07 02:37:40;;;;;;;26.08;6.65;;;8.80;99.90;;;;;;5117499;27;20043;-81
2022/04/07 02:40:07;;;;;;;21.33;5.57;;;8.80;99.90;;;;;;5135151;27;20053;-81
2022/04/07 02:42:32;;;;;;;22.00;3.85;;;8.80;99.90;;;;;;5117832;27;20051;-81
2022/04/07 02:44:58;;;;;;;25.83;7.53;;;8.80;99.90;;;;;;5135626;27;20497;-81
2022/04/07 02:47:35;;;;;;;17.10;4.80;;;8.90;99.90;;;;;;5100077;27;20538;-79
2022/04/07 02:50:02;;;;;;;16.95;4.70;;;8.90;99.90;;;;;;5135716;27;20124;-79
2022/04/07 02:52:28;;;;;;;17.25;4.68;;;8.90;99.90;;;;;;5136590;27;20043;-80
2022/04/07 02:54:54;;;;;;;18.83;4.60;;;8.90;99.90;;;;;;5135715;27;20043;-82
2022/04/07 02:57:24;;;;;;;21.97;4.20;;;8.80;99.90;;;;;;5134474;27;20039;-78
2022/04/07 02:59:50;;;;;;;19.15;3.45;;;8.90;99.90;;;;;;5133907;27;20451;-83
2022/04/07 03:02:16;;;;;;;22.93;3.73;;;8.90;99.90;;;;;;5133800;27;20047;-82
2022/04/07 03:04:42;;;;;;;25.58;4.57;;;8.90;99.90;;;;;;5134330;27;20124;-80
2022/04/07 03:07:08;;;;;;;19.27;4.65;;;8.80;99.90;;;;;;5119091;27;20046;-82
2022/04/07 03:09:33;;;;;;;19.98;4.10;;;8.80;99.90;;;;;;5135313;27;20439;-84
2022/04/07 03:11:59;;;;;;;23.92;5.05;;;8.70;99.90;;;;;;5137166;27;20043;-81
2022/04/07 03:14:27;;;;;;;25.08;5.38;;;8.70;99.90;;;;;;5135919;27;20365;-81
2022/04/07 03:16:53;;;;;;;21.90;5.00;;;8.60;99.90;;;;;;5137176;27;20491;-82
2022/04/07 03:19:19;;;;;;;23.83;4.87;;;8.60;99.90;;;;;;5137865;27;20049;-79
2022/04/07 03:21:45;;;;;;;27.80;6.05;;;8.60;99.90;;;;;;5107941;27;20100;-82
2022/04/07 03:24:11;;;;;;;16.42;5.35;;;8.60;99.90;;;;;;5143196;27;20054;-83
2022/04/07 03:26:38;;;;;;;25.52;7.07;;;8.60;99.90;;;;;;5143669;27;20047;-82
2022/04/07 03:29:04;;;;;;;26.38;6.40;;;8.50;99.90;;;;;;5142748;27;20047;-84
2022/04/07 03:31:30;;;;;;;23.35;5.00;;;8.50;99.90;;;;;;5142866;27;20035;-81
2022/04/07 03:33:56;;;;;;;33.15;6.78;;;8.50;99.90;;;;;;5137631;27;20053;-80
2022/04/07 03:36:22;;;;;;;20.58;5.88;;;8.50;99.90;;;;;;5117752;27;20066;-81
2022/04/07 03:38:50;;;;;;;29.35;6.78;;;8.50;99.90;;;;;;5134896;27;20039;-78
2022/04/07 03:41:17;;;;;;;27.25;7.68;;;8.50;99.90;;;;;;5134506;27;20112;-81
2022/04/07 03:43:43;;;;;;;31.33;7.13;;;8.40;99.90;;;;;;5118220;27;20474;-81
2022/04/07 03:46:09;;;;;;;29.83;7.38;;;8.50;99.90;;;;;;5137279;27;20374;-83
2022/04/07 03:48:36;;;;;;;31.00;6.57;;;8.40;99.90;;;;;;5139000;27;20475;-81
2022/04/07 03:51:02;;;;;;;33.70;6.72;;;8.40;99.90;;;;;;5138627;27;20050;-80
2022/04/07 03:53:28;;;;;;;31.83;6.97;;;8.40;99.90;;;;;;5138560;27;20035;-80
2022/04/07 03:55:54;;;;;;;31.00;6.90;;;8.40;99.90;;;;;;5120764;27;20301;-82
2022/04/07 03:58:20;;;;;;;31.33;6.32;;;8.50;99.90;;;;;;5135460;27;20043;-82
2022/04/07 04:00:46;;;;;;;22.88;3.88;;;8.50;99.90;;;;;;5136179;27;20078;-80
2022/04/07 04:03:11;;;;;;;31.90;5.70;;;8.50;99.90;;;;;;5133660;27;20051;-83
2022/04/07 04:05:37;;;;;;;27.27;5.18;;;8.50;99.90;;;;;;5133223;27;20039;-80
2022/04/07 04:08:03;;;;;;;24.42;4.68;;;8.40;99.90;;;;;;5133080;28;20054;-80
2022/04/07 04:10:29;;;;;;;32.28;5.85;;;8.40;99.90;;;;;;5133246;27;20404;-80
2022/04/07 04:12:55;;;;;;;31.55;5.82;;;8.40;99.90;;;;;;5099593;28;20051;-81
2022/04/07 04:15:21;;;;;;;28.95;4.72;;;8.40;99.90;;;;;;5116521;28;20035;-82
2022/04/07 04:17:47;;;;;;;25.42;4.45;;;8.40;99.90;;;;;;5100054;28;20083;-82
2022/04/07 04:20:13;;;;;;;34.10;5.60;;;8.40;99.90;;;;;;5134347;28;20086;-83
2022/04/07 04:22:39;;;;;;;37.95;5.70;;;8.30;99.90;;;;;;5134007;28;20043;-80
2022/04/07 04:25:07;;;;;;;34.72;4.88;;;8.30;99.90;;;;;;5099132;28;20090;-80
2022/04/07 04:27:33;;;;;;;30.88;4.70;;;8.30;99.90;;;;;;5133846;28;20049;-81
2022/04/07 04:29:59;;;;;;;18.70;3.33;;;8.30;99.90;;;;;;5133724;28;20450;-82
2022/04/07 04:32:25;;;;;;;33.97;6.00;;;8.30;99.90;;;;;;5116489;28;20039;-82
2022/04/07 04:34:50;;;;;;;32.70;5.30;;;8.40;99.90;;;;;;5099499;28;20047;-78
2022/04/07 04:37:16;;;;;;;29.38;4.70;;;8.30;99.90;;;;;;5116221;28;20043;-79
2022/04/07 04:39:43;;;;;;;21.63;4.22;;;8.30;99.90;;;;;;5116972;28;20047;-80
2022/04/07 04:42:11;;;;;;;36.50;6.35;;;8.30;99.90;;;;;;5133190;28;20043;-81
2022/04/07 04:44:37;;;;;;;31.70;5.45;;;8.40;99.90;;;;;;5133537;28;20395;-79
2022/04/07 04:47:03;;;;;;;31.50;5.35;;;8.40;99.90;;;;;;5135499;27;20046;-83
2022/04/07 04:49:29;;;;;;;32.05;5.75;;;8.30;99.90;;;;;;5134078;28;20058;-79
2022/04/07 04:51:55;;;;;;;28.30;6.95;;;8.30;99.90;;;;;;5134375;27;20398;-78
2022/04/07 04:54:21;;;;;;;35.67;7.13;;;8.40;99.90;;;;;;5116297;28;20058;-81
2022/04/07 04:56:47;;;;;;;30.77;5.75;;;8.40;99.90;;;;;;5133663;28;20383;-79
2022/04/07 04:59:12;;;;;;;37.00;7.15;;;8.40;99.90;;;;;;5135063;28;20047;-82
2022/04/07 05:01:39;;;;;;;39.35;7.18;;;8.40;99.90;;;;;;5135209;27;20040;-82
2022/04/07 05:04:05;;;;;;;35.90;7.22;;;8.40;99.90;;;;;;5115954;28;20096;-82
2022/04/07 05:06:31;;;;;;;33.20;6.85;;;8.40;99.90;;;;;;5116274;28;20262;-82
2022/04/07 05:09:04;;;;;;;24.88;5.72;;;8.30;99.90;;;;;;5118013;27;20113;-79
2022/04/07 05:11:30;;;;;;;26.88;5.68;;;8.30;99.90;;;;;;5137358;27;20047;-79
2022/04/07 05:13:55;;;;;;;27.05;5.65;;;8.40;99.90;;;;;;5135787;27;20066;-83
2022/04/07 05:16:22;;;;;;;30.70;6.25;;;8.40;99.90;;;;;;5136243;27;20039;-80
2022/04/07 05:18:49;;;;;;;31.77;6.03;;;8.40;99.90;;;;;;5137009;27;20428;-80
2022/04/07 05:21:15;;;;;;;28.50;6.30;;;8.40;99.90;;;;;;5135958;27;20043;-83
2022/04/07 05:23:41;;;;;;;30.42;6.75;;;8.30;99.90;;;;;;5138411;27;20112;-81
2022/04/07 05:26:07;;;;;;;19.98;5.25;;;8.30;99.90;;;;;;5158582;27;20043;-80
2022/04/07 05:28:33;;;;;;;30.25;6.53;;;8.40;99.90;;;;;;5139730;27;20129;-81
2022/04/07 05:30:59;;;;;;;24.52;5.70;;;8.40;99.90;;;;;;5139661;27;20462;-81
2022/04/07 05:33:25;;;;;;;25.90;5.75;;;8.30;99.90;;;;;;5125077;27;20041;-79
2022/04/07 05:35:52;;;;;;;28.25;6.65;;;8.40;99.90;;;;;;5142436;27;20054;-80
2022/04/07 05:38:24;;;;;;;22.98;5.47;;;8.40;99.90;;;;;;5142316;27;20081;-79
2022/04/07 05:40:50;;;;;;;21.17;5.20;;;8.40;99.90;;;;;;5158650;27;20046;-80
2022/04/07 05:43:15;;;;;;;26.00;5.40;;;8.40;99.90;;;;;;5160316;27;20095;-80
2022/04/07 05:45:44;;;;;;;20.67;6.05;;;8.40;99.90;;;;;;5126543;27;20039;-81
2022/04/07 05:48:10;;;;;;;30.65;5.97;;;8.40;99.90;;;;;;5143162;27;20057;-84
2022/04/07 05:50:36;;;;;;;27.23;6.65;;;8.40;99.90;;;;;;5143933;27;20042;-79
2022/04/07 05:53:02;;;;;;;22.05;5.20;;;8.40;99.90;;;;;;5141169;27;20046;-81
2022/04/07 05:55:34;;;;;;;18.15;4.53;;;8.40;99.90;;;;;;5128330;27;20110;-79
2022/04/07 05:58:07;;;;;;;19.65;4.68;;;8.40;99.90;;;;;;5109327;27;20050;-81
2022/04/07 06:00:33;;;;;;;22.42;1.25;;;8.40;99.90;;;;;;5124898;27;20501;-79
2022/04/07 06:02:59;;;;;;;4.55;0.50;;;6.70;99.90;;;;;;5161594;27;20047;-82
2022/04/07 06:05:25;;;;;;;2.80;0.30;;;6.10;99.90;;;;;;5127147;27;20095;-80
2022/04/07 06:11:23;;;;;;;3.28;0.30;;;5.40;99.90;;;;;;5168878;27;20075;-82
2022/04/07 06:13:49;;;;;;;6.47;0.75;;;5.30;99.90;;;;;;5144212;27;20035;-81
2022/04/07 06:16:15;;;;;;;7.10;0.40;;;5.20;99.90;;;;;;5143570;27;20371;-82
2022/04/07 06:18:41;;;;;;;4.43;0.40;;;5.20;99.90;;;;;;5160800;27;20073;-80
2022/04/07 06:21:06;;;;;;;4.47;0.30;;;5.10;99.90;;;;;;5141770;27;20145;-82
2022/04/07 06:23:32;;;;;;;10.45;0.57;;;5.30;99.90;;;;;;5126519;27;20049;-81
2022/04/07 06:25:58;;;;;;;8.65;0.55;;;5.20;99.90;;;;;;5142728;27;20059;-84
2022/04/07 06:28:24;;;;;;;9.77;0.40;;;5.30;99.90;;;;;;5142983;27;20134;-81
2022/04/07 06:30:54;;;;;;;4.90;0.47;;;5.30;99.90;;;;;;5160793;27;20048;-80
2022/04/07 06:33:21;;;;;;;7.40;0.40;;;5.40;99.90;;;;;;5160568;27;20047;-83
2022/04/07 06:35:49;;;;;;;13.27;1.42;;;5.30;99.90;;;;;;5141408;27;20122;-81
2022/04/07 06:38:15;;;;;;;3.08;0.32;;;5.30;99.90;;;;;;5124561;27;20053;-81
2022/04/07 06:40:42;;;;;;;10.13;0.43;;;5.30;99.90;;;;;;5123234;27;20111;-80
2022/04/07 06:43:07;;;;;;;5.03;0.50;;;5.30;99.90;;;;;;5140370;27;20066;-79
2022/04/07 06:45:33;;;;;;;7.68;0.60;;;5.20;99.90;;;;;;5158667;27;20077;-82
2022/04/07 06:47:59;;;;;;;7.82;0.43;;;5.20;99.90;;;;;;5158461;27;20431;-81
2022/04/07 06:50:26;;;;;;;4.72;0.30;;;5.20;99.90;;;;;;5138917;27;20138;-82
2022/04/07 06:52:53;;;;;;;2.67;0.30;;;5.20;99.90;;;;;;5138540;27;20118;-81
2022/04/07 06:55:20;;;;;;;4.82;0.40;;;5.20;99.90;;;;;;5139272;27;20051;-81
2022/04/07 06:57:54;;;;;;;7.38;0.63;;;5.20;99.90;;;;;;5138365;27;20099;-79
2022/04/07 07:00:23;;;;;;;3.45;0.20;;;5.10;99.90;;;;;;5157735;27;20459;-80
2022/04/07 07:02:53;;;;;;;5.47;0.40;;;5.10;99.90;;;;;;5157852;27;20042;-78
2022/04/07 07:05:26;;;;;;;3.08;0.30;;;5.10;99.90;;;;;;5139458;27;20129;-78
2022/04/07 07:07:53;;;;;;;5.72;0.38;;;5.10;99.90;;;;;;5121200;27;20142;-80
2022/04/07 07:10:24;;;;;;;9.68;0.30;;;5.00;99.90;;;;;;5137692;27;20051;-78
2022/04/07 07:12:55;;;;;;;6.32;0.30;;;4.90;99.90;;;;;;5155667;27;20042;-77
2022/04/07 07:15:21;;;;;;;6.30;0.70;;;4.90;99.90;;;;;;5156261;27;20137;-80
2022/04/07 07:17:48;;;;;;;4.15;0.35;;;4.90;99.90;;;;;;5138052;27;20378;-79
2022/04/07 07:20:15;;;;;;;6.43;0.70;;;4.90;99.90;;;;;;5122907;27;20039;-82
2022/04/07 07:22:42;;;;;;;4.78;0.73;;;4.90;99.90;;;;;;5156305;27;20107;-81
2022/04/07 07:25:09;;;;;;;7.20;0.80;;;4.90;99.90;;;;;;5119421;27;20058;-81
2022/04/07 07:27:36;;;;;;;11.25;0.70;;;4.90;99.90;;;;;;5137929;27;20424;-79
2022/04/07 07:30:03;;;;;;;;;;;4.90;99.90;;;;;;5120462;27;20133;-81
2022/04/07 07:32:29;;;;;;;8.90;0.80;;;5.00;99.90;;;;;;5136317;27;19919;-79
2022/04/07 07:34:57;;;;;;;7.78;0.65;;;5.00;99.90;;;;;;5136986;27;20067;-80
2022/04/07 07:37:23;;;;;;;4.50;0.47;;;5.00;99.90;;;;;;5138123;27;20557;-80
2022/04/07 07:39:50;;;;;;;7.00;0.40;;;4.90;99.90;;;;;;5120803;27;20125;-80
2022/04/07 07:42:16;;;;;;;4.43;0.40;;;4.90;99.90;;;;;;5120128;27;20046;-80
2022/04/07 07:44:42;;;;;;;5.70;0.45;;;4.90;99.90;;;;;;5119245;27;20090;-80
2022/04/07 07:47:08;;;;;;;7.22;0.65;;;4.90;99.90;;;;;;5120431;27;20041;-78
2022/04/07 07:49:35;;;;;;;5.15;0.60;;;4.90;99.90;;;;;;5138392;27;20050;-79
2022/04/07 07:52:02;;;;;;;6.50;0.70;;;4.90;99.90;;;;;;5137155;27;20038;-79
2022/04/07 07:54:28;;;;;;;4.00;0.45;;;4.90;99.90;;;;;;5120919;27;20055;-79
2022/04/07 07:56:54;;;;;;;6.35;0.50;;;4.90;99.90;;;;;;5138725;27;20091;-81
2022/04/07 07:59:20;;;;;;;12.77;1.02;;;5.00;99.90;;;;;;5137800;27;20061;-79
2022/04/07 08:01:49;;;;;;;4.03;0.55;;;5.00;99.90;;;;;;5103716;27;20382;-80
2022/04/07 08:04:15;;;;;;;12.57;0.80;;;5.00;99.90;;;;;;5138685;27;20049;-79
2022/04/07 08:06:41;;;;;;;9.77;0.70;;;5.10;99.90;;;;;;5138108;27;20470;-79
2022/04/07 08:09:10;;;;;;;8.90;0.50;;;5.10;99.90;;;;;;5121135;27;20120;-80
2022/04/07 08:11:36;;;;;;;3.45;0.30;;;5.10;99.90;;;;;;5136914;27;20047;-79
2022/04/07 08:14:02;;;;;;;5.55;0.40;;;5.20;99.90;;;;;;5119749;27;20051;-79
2022/04/07 08:16:30;;;;;;;7.78;0.50;;;5.30;99.90;;;;;;5157858;27;20054;-79
2022/04/07 08:18:57;;;;;;;3.90;0.55;;;5.30;99.90;;;;;;5156581;27;20047;-79
2022/04/07 08:21:23;;;;;;;3.55;0.30;;;5.40;99.90;;;;;;5136130;27;20050;-78
2022/04/07 08:23:48;;;;;;;8.07;0.60;;;5.40;99.90;;;;;;5120076;27;20041;-80
2022/04/07 08:26:16;;;;;;;15.40;0.82;;;5.50;99.90;;;;;;5136993;27;20106;-78
2022/04/07 08:28:41;;;;;;;;;;;5.50;99.90;;;;;;5137318;27;20440;-80
2022/04/07 08:31:07;;;;;;;4.95;0.60;;;5.60;99.90;;;;;;5136896;27;19918;-79
2022/04/07 08:33:33;;;;;;;11.85;0.50;;;5.60;99.90;;;;;;5137492;27;20046;-81
2022/04/07 08:35:59;;;;;;;7.03;0.40;;;5.70;99.90;;;;;;5137629;27;20039;-79
2022/04/07 08:38:28;;;;;;;5.93;0.45;;;5.80;99.90;;;;;;5156018;27;20089;-80
2022/04/07 08:40:55;;;;;;;13.27;0.88;;;5.90;99.90;;;;;;5104613;27;20464;-80
2022/04/07 08:43:22;;;;;;;;;;;6.00;99.90;;;;;;5140642;27;20071;-80
2022/04/07 08:45:48;;;;;;;5.18;0.30;;;5.90;99.90;;;;;;5144592;27;19940;-79
2022/04/07 08:48:24;;;;;;;11.25;0.45;;;5.80;99.90;;;;;;5128149;27;20179;-79
2022/04/07 08:51:04;;;;;;;4.00;0.40;;;5.80;99.90;;;;;;5128815;27;20503;-78
2022/04/07 08:53:30;;;;;;;;;;;5.90;99.90;;;;;;5142894;27;20053;-81
2022/04/07 08:55:58;;;;;;;4.63;0.38;;;6.00;99.90;;;;;;5143594;27;20009;-79
2022/04/07 08:58:24;;;;;;;2.55;0.20;;;6.20;99.90;;;;;;5143777;27;20107;-79
2022/04/07 09:00:50;;;;;;;4.32;0.50;;;6.40;99.90;;;;;;5161829;27;20057;-81
2022/04/07 09:03:17;;;;;;;6.43;0.30;;;6.50;99.90;;;;;;5143869;27;20046;-79
2022/04/07 09:05:56;;;;;;;;;;;6.60;99.90;;;;;;5126754;27;20374;-77
2022/04/07 09:08:37;;;;;;;13.35;0.98;;;6.80;99.90;;;;;;5144980;27;19923;-79
2022/04/07 09:11:05;;;;;;;5.05;0.70;;;6.90;99.90;;;;;;5128062;27;20178;-78
2022/04/07 09:13:39;;;;;;;7.63;1.20;;;7.10;99.90;;;;;;5127612;27;20053;-78
2022/04/07 09:16:08;;;;;;;9.77;0.57;;;7.10;99.90;;;;;;5145493;27;20053;-79
2022/04/07 09:18:35;;;;;;;8.10;0.77;;;7.20;99.90;;;;;;5144843;27;20151;-76
2022/04/07 09:21:03;;;;;;;8.30;0.70;;;7.40;99.90;;;;;;5146217;27;20490;-80
2022/04/07 09:23:39;;;;;;;9.50;0.90;;;7.40;99.90;;;;;;5125971;27;20141;-83
2022/04/07 09:26:05;;;;;;;6.88;0.85;;;7.60;99.90;;;;;;5142630;27;20055;-80
2022/04/07 09:28:32;;;;;;;9.80;0.70;;;7.80;99.90;;;;;;5143047;27;20418;-82
2022/04/07 09:30:59;;;;;;;7.50;1.70;;;7.90;99.90;;;;;;5142580;27;20043;-80
2022/04/07 09:33:26;;;;;;;;;;;8.10;99.90;;;;;;5144659;27;20042;-82
2022/04/07 09:36:20;;;;;;;12.20;1.10;;;8.20;99.90;;;;;;5143782;27;20278;-78
2022/04/07 09:38:55;;;;;;;10.50;1.15;;;8.20;99.90;;;;;;5126494;27;20133;-82
2022/04/07 09:41:23;;;;;;;14.85;1.27;;;8.50;99.90;;;;;;5144436;27;20071;-82
2022/04/07 09:43:57;;;;;;;10.88;1.90;;;8.60;99.90;;;;;;5159680;27;20550;-78
2022/04/07 09:46:31;;;;;;;5.63;1.63;;;8.70;99.90;;;;;;5124562;27;20073;-81
2022/04/07 09:49:03;;;;;;;9.70;1.30;;;8.90;99.90;;;;;;5122944;27;20462;-80
2022/04/07 09:51:35;;;;;;;9.68;1.27;;;8.90;99.90;;;;;;5158341;27;20494;-80
2022/04/07 09:54:02;;;;;;;12.65;1.73;;;9.00;99.90;;;;;;5140979;27;20058;-81
2022/04/07 09:56:28;;;;;;;15.93;2.03;;;9.10;99.90;;;;;;5158023;27;20047;-79
2022/04/07 09:58:55;;;;;;;13.93;2.13;;;9.20;99.90;;;;;;5141040;27;20038;-81
2022/04/07 10:01:22;;;;;;;10.40;1.58;;;9.30;99.90;;;;;;5159622;27;20045;-80
2022/04/07 10:03:51;;;;;;;13.32;1.98;;;9.30;99.90;;;;;;5160484;27;20049;-77
2022/04/07 10:06:18;;;;;;;21.08;1.70;;;9.30;99.90;;;;;;5141613;27;20087;-80
2022/04/07 10:08:49;;;;;;;15.73;2.08;;;9.50;99.90;;;;;;5160296;27;20474;-84
2022/04/07 10:11:17;;;;;;;11.68;1.33;;;9.30;99.90;;;;;;5123516;27;20059;-79
2022/04/07 10:13:46;;;;;;;13.75;1.95;;;9.20;99.90;;;;;;5140770;27;20046;-80
2022/04/07 10:16:16;;;;;;;11.18;1.40;;;9.10;99.90;;;;;;5107795;27;20122;-80
2022/04/07 10:19:04;;;;;;;17.63;1.90;;;9.10;99.90;;;;;;5141440;27;20050;-78
2022/04/07 10:21:48;;;;;;;14.57;1.70;;;9.10;99.90;;;;;;5160250;27;20098;-79
2022/04/07 10:24:34;;;;;;;15.38;1.70;;;9.00;99.90;;;;;;5123151;27;20054;-78
2022/04/07 10:27:03;;;;;;;11.07;1.30;;;9.00;99.90;;;;;;5124065;27;20054;-79
2022/04/07 10:29:30;;;;;;;15.27;1.90;;;9.00;99.90;;;;;;5124444;27;20366;-80
2022/04/07 10:32:11;;;;;;;17.00;1.80;;;9.10;99.90;;;;;;5142738;27;20126;-79
2022/04/07 10:34:51;;;;;;;15.68;1.33;;;9.30;99.90;;;;;;5141171;27;20057;-81
2022/04/07 10:37:43;;;;;;;17.73;1.77;;;9.50;99.90;;;;;;5124116;27;20039;-82
2022/04/07 10:40:35;;;;;;;25.45;1.80;;;9.60;99.90;;;;;;5123647;27;20046;-80
2022/04/07 10:43:05;;;;;;;22.75;2.45;;;9.80;99.90;;;;;;5123610;27;20064;-79
2022/04/07 10:45:34;;;;;;;17.52;1.33;;;9.90;99.90;;;;;;5140348;27;20043;-78
2022/04/07 10:48:30;;;;;;;18.85;2.05;;;10.00;99.90;;;;;;5140484;27;20065;-80
2022/04/07 10:51:05;;;;;;;17.17;1.52;;;10.00;99.90;;;;;;5139967;27;20051;-75
2022/04/07 10:53:35;;;;;;;16.98;1.27;;;10.00;99.90;;;;;;5139650;27;20062;-79
2022/04/07 10:56:24;;;;;;;23.77;1.48;;;9.90;99.90;;;;;;5121554;27;20042;-77
2022/04/07 10:58:54;;;;;;;19.02;1.80;;;10.00;99.90;;;;;;5138307;27;20055;-83
2022/04/07 11:01:29;;;;;;;19.48;2.13;;;9.90;99.90;;;;;;5138285;27;20148;-78
2022/04/07 11:04:23;;;;;;;19.13;1.58;;;10.00;99.90;;;;;;5121675;27;20125;-80
2022/04/07 11:07:16;;;;;;;13.95;1.15;;;10.00;99.90;;;;;;5138693;27;20490;-78
2022/04/07 11:09:52;;;;;;;21.15;1.45;;;10.20;99.90;;;;;;5138873;27;20517;-79
2022/04/07 11:12:25;;;;;;;15.57;1.70;;;10.10;99.90;;;;;;5138648;27;20042;-78
2022/04/07 11:14:56;;;;;;;18.92;1.95;;;10.10;99.90;;;;;;5140329;27;20115;-78
2022/04/07 11:17:45;;;;;;;17.25;2.80;;;10.00;99.90;;;;;;5121614;27;20474;-78
2022/04/07 11:20:15;;;;;;;11.88;1.17;;;9.80;99.90;;;;;;5145650;27;20054;-77
2022/04/07 11:22:58;;;;;;;13.23;1.20;;;9.80;99.90;;;;;;5122663;27;20130;-79
2022/04/07 11:25:47;;;;;;;23.00;2.75;;;9.80;99.90;;;;;;5119895;27;20054;-79
2022/04/07 11:28:22;;;;;;;14.57;1.58;;;9.90;99.90;;;;;;5137468;27;20072;-78
2022/04/07 11:30:53;;;;;;;14.93;1.30;;;10.00;99.90;;;;;;5136910;27;20099;-78
2022/04/07 11:33:28;;;;;;;24.05;1.48;;;10.00;99.90;;;;;;5119560;27;20117;-80
2022/04/07 11:36:14;;;;;;;16.92;1.73;;;9.90;99.90;;;;;;5120309;27;20427;-80
2022/04/07 11:38:52;;;;;;;21.88;2.10;;;10.20;99.90;;;;;;5119529;27;20134;-77
2022/04/07 11:41:19;;;;;;;19.92;1.33;;;10.10;99.90;;;;;;5156828;27;20047;-78
2022/04/07 11:43:47;;;;;;;13.70;2.40;;;10.30;99.90;;;;;;5104022;27;20125;-79
2022/04/07 11:46:27;;;;;;;15.15;1.52;;;10.40;99.90;;;;;;5138842;27;20125;-77
2022/04/07 11:48:55;;;;;;;20.63;1.88;;;10.40;99.90;;;;;;5120156;27;20053;-78
2022/04/07 11:51:23;;;;;;;20.70;2.20;;;10.40;99.90;;;;;;5102911;27;20095;-76
2022/04/07 11:53:52;;;;;;;18.13;1.90;;;10.30;99.90;;;;;;5136698;27;20402;-77
2022/04/07 11:56:26;;;;;;;17.35;1.67;;;10.20;99.90;;;;;;5120448;27;20046;-78
2022/04/07 11:59:12;;;;;;;26.38;1.55;;;10.40;99.90;;;;;;5136674;27;20042;-78
2022/04/07 12:01:44;;;;;;;21.38;1.73;;;10.80;99.90;;;;;;5119573;27;20046;-77
2022/04/07 12:04:12;;;;;;;21.00;1.50;;;10.80;99.90;;;;;;5137242;27;20352;-77
2022/04/07 12:06:44;;;;;;;14.50;1.10;;;11.00;99.90;;;;;;5119459;27;20047;-76
2022/04/07 12:09:10;;;;;;;14.32;0.82;;;10.90;99.90;;;;;;5136685;27;20050;-78
2022/04/07 12:11:42;;;;;;;13.95;1.10;;;11.00;99.90;;;;;;5155039;27;20078;-78
2022/04/07 12:14:15;;;;;;;19.10;1.58;;;10.90;99.90;;;;;;5136218;27;20541;-76
2022/04/07 12:16:48;;;;;;;20.83;1.80;;;10.80;99.90;;;;;;5102472;27;20422;-76
2022/04/07 12:19:15;;;;;;;13.43;1.48;;;10.80;99.90;;;;;;5140134;27;20050;-78
2022/04/07 12:21:59;;;;;;;16.23;1.00;;;10.60;99.90;;;;;;5125832;27;20047;-76
2022/04/07 12:24:27;;;;;;;14.80;1.58;;;10.40;99.90;;;;;;5142690;27;20043;-76
2022/04/07 12:26:55;;;;;;;22.85;1.98;;;10.50;99.90;;;;;;5108680;27;20050;-78
2022/04/07 12:29:22;;;;;;;15.60;1.92;;;10.60;99.90;;;;;;5142806;27;20078;-75
2022/04/07 12:32:09;;;;;;;13.73;1.10;;;10.80;99.90;;;;;;5142600;27;20125;-76
2022/04/07 12:34:50;;;;;;;11.32;1.58;;;11.00;99.90;;;;;;5143168;27;20053;-76
2022/04/07 12:37:36;;;;;;;11.50;0.98;;;11.10;99.90;;;;;;5160685;27;20125;-76
2022/04/07 12:40:26;;;;;;;18.25;1.23;;;11.30;99.90;;;;;;5161711;27;20050;-77
2022/04/07 12:43:00;;;;;;;15.90;2.10;;;11.10;99.90;;;;;;5161646;27;20180;-76
2022/04/07 12:45:27;;;;;;;11.02;1.02;;;11.00;99.90;;;;;;5161201;27;20047;-77
2022/04/07 12:48:01;;;;;;;14.90;1.03;;;11.10;99.90;;;;;;5109210;27;20078;-78
2022/04/07 12:50:27;;;;;;;11.98;1.23;;;11.40;99.90;;;;;;5142605;27;20138;-76
2022/04/07 12:52:59;;;;;;;8.73;0.88;;;11.40;99.90;;;;;;5111001;27;20509;-76
2022/04/07 12:55:37;;;;;;;14.33;1.80;;;11.20;99.90;;;;;;5142444;27;20046;-75
2022/04/07 12:58:04;;;;;;;12.77;1.23;;;11.20;99.90;;;;;;5160726;27;20057;-77
2022/04/07 13:00:33;;;;;;;;;;;11.30;99.90;;;;;;5162060;27;20042;-74
2022/04/07 13:03:02;;;;;;;13.40;1.10;;;11.30;99.90;;;;;;5161874;27;20026;-76
2022/04/07 13:05:35;;;;;;;11.65;1.23;;;11.30;99.90;;;;;;5125798;27;20042;-76
2022/04/07 13:08:03;;;;;;;9.55;1.00;;;11.20;99.90;;;;;;5142782;27;20062;-77